| Record Date MM/DD/YYYY | Record Time HH:MM:SS | Record Julian Date NNN day of the year | Air Temperature Max (Degrees Fahrenheit F) | Time Max Air Temperature HH:MM:SS This is the time of max air temp for the prior hour interval listed for record [Time]. | Air Temperature Min (Degrees Fahrenheit F) | Time Min Air Temperature HH:MM:SS This is the time of min air temp for the prior hour interval listed for record [Time]. | Air Temperature Observed (Degrees Fahrenheit F) This is an instantaneous reading at the record [Time]. | Relative Humidity Max (Percent) | Time Max Relative Humidity HH:MM:SS This is the time of max relative humidity for the prior hour interval listed for record [Time]. | Relative Humidity Min (Percent) | Time Min Relative Humidity HH:MM:SS This is the time of min relative humidity for the prior hour interval listed for record [Time]. | Relative Humidity Observed (Percent) This is an instantaneous reading at the record [Time]. | Precipitation (Inches n.nn) rain fall that occurred during the prior hour interval listed for record [Time]. | Wind Speed (Miles Per Hour) Resultant Speed that occurred during the prior hour interval listed for record [Time]. | Wind Direction (Degrees) Resultant Direction that occurred during the prior hour interval listed for record [Time]. | Solar Radiation (Langley's) that occurred during the prior hour interval listed for record [Time]. | Soil Temperature Average at 2 inch depth (Degrees Fahrenheit F) that occurred during the prior hour interval listed for record [Time]. | Soil Temperature Observed at 2 inch depth (Degrees Fahrenheit F) This is an instantaneous reading at the record [Time]. | Soil Temperature Average at 4 inch depth (Degrees Fahrenheit F) that occurred during the prior hour interval listed for record [Time]. | Soil Temperature Observed at 4 inch depth (Degrees Fahrenheit F) This is an instantaneous reading at the record [Time]. |
|---|---|---|---|---|---|---|---|---|---|---|---|---|---|---|---|---|---|---|---|---|
| 08/30/2026 | 0:00:00 | 242 | 71 | 23:02:00 | 70 | 23:57:01 | 71 | 100 | 23:14:02 | 100 | 23:00:00 | 100 | 0 | 2.4 | 352 | 81 | 80 | 82 | 82 | |
| 08/30/2026 | 1:00:00 | 242 | 71 | 0:00:04 | 70 | 0:59:01 | 70 | 100 | 0:00:00 | 100 | 0:00:00 | 100 | 0 | 2.4 | 352 | 80 | 80 | 81 | 81 | |
| 08/30/2026 | 2:00:00 | 242 | 70 | 1:05:01 | 70 | 1:47:05 | 70 | 100 | 1:00:00 | 100 | 1:00:00 | 100 | 0 | 1.4 | 352 | 80 | 80 | 81 | 81 | |
| 08/30/2026 | 3:00:00 | 242 | 70 | 2:42:00 | 70 | 2:00:04 | 70 | 100 | 2:00:00 | 100 | 2:00:00 | 100 | 0 | 1.8 | 352 | 79 | 79 | 81 | 81 | |
| 08/30/2026 | 4:00:00 | 242 | 70 | 3:56:02 | 70 | 3:22:00 | 70 | 100 | 3:00:00 | 100 | 3:00:00 | 100 | 0 | 1.3 | 352 | 79 | 79 | 81 | 80 | |
| 08/30/2026 | 5:00:00 | 242 | 71 | 4:34:00 | 70 | 4:02:05 | 71 | 100 | 4:00:00 | 100 | 4:00:00 | 100 | 0 | 2.2 | 352 | 79 | 79 | 80 | 80 | |
| 08/30/2026 | 6:00:00 | 242 | 71 | 5:58:05 | 71 | 5:00:01 | 71 | 100 | 5:00:00 | 100 | 5:00:00 | 100 | 0 | 1.3 | 352 | 79 | 79 | 80 | 80 | |
| 08/30/2026 | 7:00:00 | 242 | 74 | 6:59:05 | 71 | 6:01:04 | 74 | 100 | 6:00:00 | 98 | 7:00:00 | 98.3 | 0 | 0.4 | 352 | 79 | 79 | 80 | 80 | |
| 08/30/2026 | 8:00:00 | 242 | 87 | 7:59:03 | 74 | 7:00:00 | 87 | 98 | 7:00:00 | 77 | 7:59:05 | 76.81 | 0 | 1.6 | 352 | 79 | 79 | 79 | 79 | |
| 08/30/2026 | 9:00:00 | 242 | 94 | 9:00:00 | 87 | 8:00:01 | 94 | 80 | 8:01:03 | 65 | 8:59:00 | 64.82 | 0 | 1.2 | 351 | 79 | 80 | 79 | 80 | |
| 08/30/2026 | 10:00:00 | 242 | 97 | 9:45:03 | 93 | 9:03:01 | 96 | 68 | 9:10:02 | 56 | 9:46:02 | 60.19 | 0 | 0.9 | 352 | 80 | 81 | 80 | 80 | |
| 08/30/2026 | 11:00:00 | 242 | 98 | 10:37:02 | 96 | 10:14:02 | 98 | 66 | 10:15:05 | 51 | 10:43:03 | 57.57 | 0 | 1.6 | 352 | 81 | 82 | 80 | 81 | |
| 08/30/2026 | 12:00:00 | 242 | 98 | 11:23:02 | 94 | 11:36:03 | 96 | 67 | 11:50:04 | 53 | 11:25:05 | 57.38 | 0 | 1.5 | 352 | 82 | 83 | 81 | 81 | |
| 08/30/2026 | 13:00:00 | 242 | 99 | 12:11:01 | 95 | 12:23:00 | 96 | 64 | 12:27:03 | 50 | 12:17:05 | 56.64 | 0 | 1.1 | 352 | 83 | 84 | 81 | 81 | |
| 08/30/2026 | 14:00:00 | 242 | 102 | 13:41:05 | 96 | 13:00:00 | 102 | 62 | 13:00:05 | 45 | 13:43:00 | 47.4 | 0 | 1.0 | 352 | 84 | 85 | 82 | 82 | |
| 08/30/2026 | 15:00:00 | 242 | 102 | 14:35:02 | 98 | 14:15:00 | 99 | 57 | 14:57:05 | 42 | 14:32:00 | 47.15 | 0 | 0.4 | 351 | 85 | 85 | 82 | 82 | |
| 08/30/2026 | 16:00:00 | 242 | 101 | 15:16:03 | 99 | 15:35:03 | 99 | 56 | 15:23:01 | 44 | 15:48:04 | 52.86 | 0 | 0.4 | 352 | 85 | 85 | 83 | 83 | |
| 08/30/2026 | 17:00:00 | 242 | 100 | 16:22:01 | 97 | 16:47:00 | 98 | 58 | 16:50:04 | 45 | 16:22:04 | 50.77 | 0 | 0.3 | 352 | 85 | 85 | 83 | 83 | |
| 08/30/2026 | 18:00:00 | 242 | 98 | 17:00:02 | 93 | 18:00:00 | 93 | 63 | 18:00:00 | 49 | 17:00:05 | 63.39 | 0 | 0.2 | 351 | 85 | 84 | 83 | 83 | |
| 08/30/2026 | 19:00:00 | 242 | 93 | 18:00:00 | 82 | 19:00:00 | 82 | 88 | 19:00:00 | 63 | 18:00:00 | 87.9 | 0 | 0.1 | 352 | 84 | 84 | 83 | 83 | |
| 08/30/2026 | 20:00:00 | 242 | 82 | 19:00:00 | 80 | 20:00:00 | 80 | 95 | 19:59:05 | 88 | 19:00:00 | 95.1 | 0 | 0.2 | 352 | 83 | 83 | 83 | 83 | |
| 08/30/2026 | 21:00:00 | 242 | 80 | 20:00:01 | 78 | 20:59:01 | 78 | 97 | 20:59:03 | 95 | 20:00:01 | 97.1 | 0 | 0.1 | 352 | 83 | 83 | 83 | 82 | |
| 08/30/2026 | 22:00:00 | 242 | 78 | 21:00:00 | 77 | 21:59:05 | 77 | 98 | 21:54:00 | 97 | 21:00:04 | 98.2 | 0 | 0.0 | 0 | 82 | 82 | 82 | 82 | |
| 08/30/2026 | 23:00:00 | 242 | 77 | 22:02:00 | 77 | 22:59:03 | 77 | 99 | 22:58:01 | 98 | 22:01:00 | 99 | 0 | 1.3 | 352 | 82 | 82 | 82 | 82 | |
| 08/31/2026 | 0:00:00 | 243 | 77 | 23:00:01 | 76 | 23:56:02 | 76 | 100 | 23:57:00 | 99 | 23:00:05 | 99.8 | 0 | 1.7 | 352 | 82 | 81 | 82 | 82 | |
| 08/31/2026 | 1:00:00 | 243 | 76 | 0:04:00 | 75 | 0:59:00 | 75 | 100 | 0:28:05 | 100 | 0:00:02 | 100 | 0 | 1.8 | 352 | 81 | 81 | 82 | 81 | |
| 08/31/2026 | 2:00:00 | 243 | 75 | 1:04:02 | 75 | 1:51:04 | 75 | 100 | 1:00:00 | 100 | 1:00:00 | 100 | 0 | 1.6 | 352 | 81 | 81 | 81 | 81 | |
| 08/31/2026 | 3:00:00 | 243 | 75 | 2:00:01 | 75 | 2:59:04 | 75 | 100 | 2:00:00 | 100 | 2:00:00 | 100 | 0 | 0.6 | 352 | 81 | 80 | 81 | 81 | |
| 08/31/2026 | 4:00:00 | 243 | 75 | 3:09:05 | 74 | 3:57:02 | 74 | 100 | 3:00:00 | 100 | 3:00:00 | 100 | 0 | 0.0 | 352 | 80 | 80 | 81 | 81 | |
| 08/31/2026 | 5:00:00 | 243 | 74 | 4:18:00 | 74 | 4:59:02 | 74 | 100 | 4:00:00 | 100 | 4:00:00 | 100 | 0 | 0.2 | 352 | 80 | 80 | 81 | 81 | |
| 08/31/2026 | 6:00:00 | 243 | 74 | 5:40:05 | 74 | 5:16:02 | 74 | 100 | 5:00:00 | 100 | 5:00:00 | 100 | 0 | 0.7 | 352 | 80 | 80 | 81 | 81 | |
| 08/31/2026 | 7:00:00 | 243 | 76 | 6:59:05 | 74 | 6:05:01 | 76 | 100 | 6:00:00 | 100 | 6:00:00 | 100 | 0 | 0.2 | 351 | 80 | 80 | 80 | 80 | |
| 08/31/2026 | 8:00:00 | 243 | 84 | 8:00:00 | 76 | 7:00:02 | 84 | 100 | 7:00:00 | 87 | 7:59:01 | 87.9 | 0 | 0.1 | 351 | 80 | 80 | 80 | 80 | |
| 08/31/2026 | 9:00:00 | 243 | 94 | 8:59:05 | 84 | 8:00:00 | 94 | 88 | 8:01:00 | 61 | 8:51:01 | 64.88 | 0 | 0.6 | 352 | 80 | 81 | 80 | 80 | |
| 08/31/2026 | 10:00:00 | 243 | 96 | 9:52:03 | 94 | 9:00:00 | 96 | 66 | 9:10:05 | 56 | 9:52:04 | 62.47 | 0 | 1.3 | 352 | 81 | 81 | 80 | 81 | |
| 08/31/2026 | 11:00:00 | 243 | 98 | 10:29:00 | 92 | 10:47:02 | 94 | 70 | 10:47:05 | 54 | 10:13:05 | 62.19 | 0 | 0.6 | 352 | 82 | 82 | 81 | 81 | |
| 08/31/2026 | 12:00:00 | 243 | 99 | 11:49:00 | 93 | 11:25:04 | 99 | 68 | 11:02:04 | 52 | 11:50:04 | 54.03 | 0 | 1.0 | 352 | 83 | 83 | 81 | 81 | |
| 08/31/2026 | 13:00:00 | 243 | 101 | 12:58:01 | 97 | 12:31:01 | 101 | 63 | 12:20:05 | 47 | 12:58:02 | 50.74 | 0 | 0.5 | 352 | 83 | 84 | 82 | 82 | |
| 08/31/2026 | 14:00:00 | 243 | 102 | 13:37:01 | 94 | 13:55:04 | 96 | 64 | 13:58:00 | 45 | 13:40:03 | 57.66 | 0 | 0.6 | 352 | 85 | 86 | 82 | 82 | |
| 08/31/2026 | 15:00:00 | 243 | 102 | 14:54:04 | 96 | 14:00:00 | 100 | 64 | 14:00:05 | 45 | 14:49:03 | 47.96 | 0 | 0.6 | 352 | 86 | 86 | 83 | 83 | |
| 08/31/2026 | 16:00:00 | 243 | 100 | 15:40:03 | 96 | 15:08:03 | 97 | 59 | 15:14:00 | 45 | 15:42:00 | 52.54 | 0 | 0.6 | 351 | 85 | 85 | 83 | 83 | |
| 08/31/2026 | 17:00:00 | 243 | 100 | 16:38:03 | 94 | 16:12:01 | 99 | 60 | 16:14:00 | 47 | 16:38:05 | 51.24 | 0 | 0.1 | 351 | 85 | 85 | 83 | 83 | |
| 08/31/2026 | 18:00:00 | 243 | 99 | 17:03:03 | 92 | 18:00:00 | 92 | 67 | 18:00:00 | 48 | 17:04:00 | 66.53 | 0 | 0.1 | 352 | 85 | 85 | 83 | 83 | |
| 08/31/2026 | 19:00:00 | 243 | 92 | 18:00:00 | 83 | 19:00:00 | 83 | 87 | 18:59:04 | 67 | 18:00:00 | 87.2 | 0 | 0.2 | 352 | 84 | 84 | 83 | 83 | |
| 08/31/2026 | 20:00:00 | 243 | 83 | 19:00:01 | 81 | 19:59:04 | 81 | 94 | 19:59:03 | 87 | 19:00:00 | 94.1 | 0 | 0.3 | 352 | 84 | 84 | 83 | 83 | |
| 08/31/2026 | 21:00:00 | 243 | 81 | 20:00:00 | 79 | 20:58:04 | 79 | 97 | 20:59:04 | 94 | 20:00:03 | 96.9 | 0 | 0.3 | 352 | 83 | 83 | 83 | 83 | |
| 08/31/2026 | 22:00:00 | 243 | 79 | 21:00:00 | 78 | 21:58:01 | 78 | 98 | 21:59:02 | 97 | 21:00:01 | 98 | 0 | 0.1 | 352 | 83 | 83 | 83 | 82 | |
| 08/31/2026 | 23:00:00 | 243 | 78 | 22:00:01 | 77 | 22:59:03 | 77 | 99 | 22:33:03 | 98 | 22:02:01 | 98.4 | 0 | 0.1 | 352 | 82 | 82 | 82 | 82 | |
| 09/01/2026 | 0:00:00 | 244 | 77 | 23:02:02 | 77 | 23:59:04 | 77 | 99 | 23:59:00 | 98 | 23:00:00 | 99.2 | 0 | 0.0 | 352 | 82 | 82 | 82 | 82 | |
| 09/01/2026 | 1:00:00 | 244 | 77 | 0:00:03 | 76 | 0:59:05 | 76 | 100 | 0:55:04 | 99 | 0:00:00 | 100 | 0 | 0.0 | 352 | 82 | 81 | 82 | 82 | |
| 09/01/2026 | 2:00:00 | 244 | 76 | 1:00:01 | 75 | 1:59:01 | 75 | 100 | 1:00:00 | 100 | 1:00:05 | 100 | 0 | 0.0 | 352 | 81 | 81 | 82 | 82 | |
| 09/01/2026 | 3:00:00 | 244 | 75 | 2:17:04 | 75 | 2:00:01 | 75 | 100 | 2:00:00 | 100 | 2:00:00 | 100 | 0 | 0.0 | 0 | 81 | 81 | 81 | 81 | |
| 09/01/2026 | 4:00:00 | 244 | 75 | 3:00:01 | 74 | 3:56:05 | 75 | 100 | 3:00:00 | 100 | 3:00:00 | 100 | 0 | 0.0 | 0 | 81 | 81 | 81 | 81 | |
| 09/01/2026 | 5:00:00 | 244 | 75 | 4:00:01 | 74 | 4:24:03 | 74 | 100 | 4:00:00 | 100 | 4:00:00 | 100 | 0 | 0.0 | 352 | 80 | 80 | 81 | 81 | |
| 09/01/2026 | 6:00:00 | 244 | 75 | 6:00:00 | 74 | 5:18:02 | 75 | 100 | 5:00:00 | 100 | 5:00:00 | 100 | 0 | 0.0 | 352 | 80 | 80 | 81 | 81 | |
| 09/01/2026 | 7:00:00 | 244 | 77 | 7:00:00 | 75 | 6:00:00 | 77 | 100 | 6:00:00 | 100 | 6:00:00 | 100 | 0 | 0.0 | 352 | 80 | 80 | 81 | 81 | |
| 09/01/2026 | 8:00:00 | 244 | 87 | 7:59:05 | 77 | 7:00:00 | 87 | 100 | 7:00:00 | 83 | 8:00:00 | 82.7 | 0 | 0.1 | 352 | 80 | 80 | 80 | 80 | |
| 09/01/2026 | 9:00:00 | 244 | 93 | 8:58:00 | 87 | 8:00:01 | 93 | 84 | 8:01:01 | 63 | 8:58:05 | 69.95 | 0 | 0.5 | 352 | 81 | 81 | 80 | 80 | |
| 09/01/2026 | 10:00:00 | 244 | 96 | 9:43:01 | 93 | 9:00:01 | 95 | 71 | 9:01:01 | 56 | 9:30:01 | 61.88 | 0 | 0.8 | 352 | 81 | 82 | 81 | 81 | |
| 09/01/2026 | 11:00:00 | 244 | 98 | 10:58:03 | 95 | 10:00:01 | 98 | 66 | 10:47:04 | 54 | 10:59:01 | 55.73 | 0 | 0.9 | 352 | 82 | 83 | 81 | 81 | |
| 09/01/2026 | 12:00:00 | 244 | 98 | 11:54:01 | 97 | 11:59:04 | 97 | 63 | 11:17:01 | 53 | 11:56:01 | 58.72 | 0 | 0.3 | 352 | 83 | 83 | 81 | 82 | |
| 09/01/2026 | 13:00:00 | 244 | 99 | 12:40:04 | 95 | 12:10:01 | 98 | 65 | 12:28:04 | 51 | 12:44:04 | 60 | 0 | 0.0 | 353 | 84 | 84 | 82 | 82 | |
| 09/01/2026 | 14:00:00 | 244 | 100 | 13:39:00 | 98 | 13:00:00 | 99 | 62 | 13:03:00 | 50 | 13:51:00 | 52.15 | 0 | 0.0 | 353 | 84 | 85 | 82 | 82 | |
| 09/01/2026 | 15:00:00 | 244 | 99 | 14:04:04 | 96 | 14:59:05 | 96 | 61 | 14:51:00 | 51 | 14:04:02 | 57.14 | 0 | 0.0 | 352 | 85 | 85 | 83 | 83 | |
| 09/01/2026 | 16:00:00 | 244 | 100 | 15:41:02 | 96 | 15:01:05 | 99 | 64 | 15:04:01 | 51 | 15:44:02 | 57.89 | 0 | 0.0 | 0 | 85 | 85 | 83 | 83 | |
| 09/01/2026 | 17:00:00 | 244 | 100 | 16:48:00 | 98 | 16:20:01 | 99 | 59 | 16:41:00 | 51 | 16:14:00 | 53.13 | 0 | 0.0 | 0 | 85 | 85 | 83 | 83 | |
| 09/01/2026 | 18:00:00 | 244 | 99 | 17:00:03 | 92 | 18:00:00 | 92 | 70 | 18:00:00 | 52 | 17:01:00 | 70.36 | 0 | 0.0 | 0 | 85 | 85 | 83 | 83 | |
| 09/01/2026 | 19:00:00 | 244 | 92 | 18:00:00 | 83 | 18:59:02 | 83 | 87 | 18:59:05 | 70 | 18:00:00 | 87.3 | 0 | 0.0 | 0 | 84 | 84 | 83 | 83 | |
| 09/01/2026 | 20:00:00 | 244 | 83 | 19:00:00 | 81 | 19:59:02 | 81 | 95 | 19:59:03 | 87 | 19:00:01 | 95.3 | 0 | 0.0 | 0 | 84 | 83 | 83 | 83 | |
| 09/01/2026 | 21:00:00 | 244 | 81 | 20:00:01 | 80 | 20:58:01 | 80 | 97 | 20:31:02 | 95 | 20:03:05 | 96.8 | 0 | 0.0 | 352 | 83 | 83 | 83 | 83 | |
| 09/01/2026 | 22:00:00 | 244 | 80 | 21:00:00 | 79 | 21:58:00 | 79 | 98 | 22:00:00 | 97 | 21:00:00 | 98.1 | 0 | 0.0 | 0 | 83 | 83 | 83 | 82 | |
| 09/01/2026 | 23:00:00 | 244 | 79 | 22:00:01 | 78 | 22:59:00 | 78 | 99 | 22:59:02 | 98 | 22:00:01 | 99.2 | 0 | 0.0 | 0 | 82 | 82 | 82 | 82 | |
| 09/02/2026 | 0:00:00 | 245 | 78 | 23:00:00 | 77 | 23:57:05 | 77 | 100 | 23:58:04 | 99 | 23:05:00 | 99.9 | 0 | 0.0 | 0 | 82 | 82 | 82 | 82 | |
| 09/02/2026 | 1:00:00 | 245 | 77 | 0:00:05 | 76 | 0:50:04 | 76 | 100 | 0:25:02 | 100 | 0:17:03 | 100 | 0 | 0.0 | 0 | 82 | 81 | 82 | 82 | |
| 09/02/2026 | 2:00:00 | 245 | 76 | 1:00:02 | 76 | 1:55:05 | 76 | 100 | 1:00:00 | 100 | 1:00:00 | 100 | 0 | 0.0 | 0 | 81 | 81 | 82 | 82 | |
| 09/02/2026 | 3:00:00 | 245 | 76 | 2:01:02 | 75 | 2:54:05 | 76 | 100 | 2:00:00 | 100 | 2:00:00 | 100 | 0 | 0.0 | 0 | 81 | 81 | 81 | 81 | |
| 09/02/2026 | 4:00:00 | 245 | 76 | 3:00:01 | 75 | 3:58:04 | 75 | 100 | 3:00:00 | 100 | 3:00:00 | 100 | 0 | 0.0 | 0 | 81 | 81 | 81 | 81 | |
| 09/02/2026 | 5:00:00 | 245 | 75 | 4:01:04 | 75 | 5:00:00 | 75 | 100 | 4:00:00 | 100 | 4:00:00 | 100 | 0 | 0.0 | 0 | 81 | 80 | 81 | 81 | |
| 09/02/2026 | 6:00:00 | 245 | 75 | 5:16:03 | 74 | 5:52:04 | 75 | 100 | 5:00:00 | 100 | 5:00:00 | 100 | 0 | 0.0 | 0 | 80 | 80 | 81 | 81 | |
| 09/02/2026 | 7:00:00 | 245 | 77 | 6:59:05 | 75 | 6:00:00 | 77 | 100 | 6:00:00 | 100 | 6:00:00 | 100 | 0 | 0.0 | 0 | 80 | 80 | 81 | 81 | |
| 09/02/2026 | 8:00:00 | 245 | 88 | 7:59:05 | 77 | 7:00:01 | 88 | 100 | 7:00:00 | 83 | 7:58:01 | 87.4 | 0 | 0.0 | 0 | 80 | 80 | 81 | 80 | |
| 09/02/2026 | 9:00:00 | 245 | 94 | 8:41:02 | 88 | 8:00:00 | 94 | 88 | 8:00:02 | 63 | 8:55:02 | 68.66 | 0 | 0.0 | 0 | 81 | 81 | 80 | 81 | |
| 09/02/2026 | 10:00:00 | 245 | 96 | 9:55:03 | 93 | 9:32:04 | 95 | 72 | 9:04:05 | 57 | 9:56:01 | 59.8 | 0 | 0.0 | 0 | 81 | 82 | 81 | 81 | |
| 09/02/2026 | 11:00:00 | 245 | 99 | 10:56:04 | 95 | 10:13:05 | 98 | 64 | 10:18:00 | 50 | 10:59:01 | 54.88 | 0 | 0.0 | 352 | 82 | 83 | 81 | 81 | |
| 09/02/2026 | 12:00:00 | 245 | 100 | 11:55:02 | 96 | 11:27:02 | 99 | 64 | 11:22:03 | 49 | 11:55:01 | 53.29 | 0 | 0.0 | 353 | 83 | 84 | 82 | 82 | |
| 09/02/2026 | 13:00:00 | 245 | 102 | 12:52:00 | 98 | 12:07:04 | 101 | 61 | 12:12:03 | 47 | 12:53:03 | 52.39 | 0 | 0.0 | 352 | 84 | 85 | 82 | 82 | |
| 09/02/2026 | 14:00:00 | 245 | 103 | 13:38:02 | 100 | 13:06:01 | 102 | 59 | 13:07:00 | 45 | 13:40:01 | 52.31 | 0 | 0.0 | 353 | 85 | 86 | 83 | 83 | |
| 09/02/2026 | 15:00:00 | 245 | 104 | 14:27:04 | 101 | 14:54:05 | 101 | 55 | 14:06:05 | 44 | 14:16:04 | 51.4 | 0 | 0.0 | 0 | 86 | 86 | 83 | 83 | |
| 09/02/2026 | 16:00:00 | 245 | 102 | 15:16:04 | 99 | 15:45:05 | 99 | 60 | 15:47:04 | 46 | 15:21:04 | 52.27 | 0 | 0.0 | 0 | 86 | 86 | 83 | 83 | |
| 09/02/2026 | 17:00:00 | 245 | 101 | 16:34:02 | 99 | 16:58:04 | 99 | 58 | 16:07:02 | 48 | 16:36:03 | 52.52 | 0 | 0.0 | 0 | 86 | 86 | 84 | 84 | |
| 09/02/2026 | 18:00:00 | 245 | 100 | 17:13:01 | 90 | 18:00:00 | 90 | 73 | 17:59:01 | 49 | 17:15:01 | 72.45 | 0 | 0.0 | 0 | 85 | 85 | 84 | 84 | |
| 09/02/2026 | 19:00:00 | 245 | 90 | 18:00:00 | 84 | 18:59:04 | 84 | 88 | 18:59:04 | 72 | 18:01:01 | 87.6 | 0 | 0.0 | 0 | 85 | 85 | 84 | 84 | |
| 09/02/2026 | 20:00:00 | 245 | 84 | 19:00:00 | 82 | 20:00:00 | 82 | 93 | 19:59:02 | 88 | 19:00:00 | 93.4 | 0 | 0.0 | 0 | 84 | 84 | 83 | 83 | |
| 09/02/2026 | 21:00:00 | 245 | 82 | 20:00:00 | 81 | 20:59:05 | 81 | 95 | 20:59:04 | 93 | 20:00:01 | 95.3 | 0 | 0.0 | 0 | 84 | 83 | 83 | 83 | |
| 09/02/2026 | 22:00:00 | 245 | 81 | 21:00:02 | 80 | 21:47:00 | 80 | 98 | 21:59:03 | 95 | 21:00:00 | 97.6 | 0 | 0.0 | 0 | 83 | 83 | 83 | 83 | |
| 09/02/2026 | 23:00:00 | 245 | 80 | 22:00:02 | 79 | 22:57:05 | 79 | 99 | 23:00:00 | 97 | 22:13:00 | 98.5 | 0 | 0.0 | 0 | 83 | 83 | 83 | 83 | |
| 09/03/2026 | 0:00:00 | 246 | 79 | 23:00:00 | 78 | 23:24:04 | 79 | 99 | 23:48:03 | 98 | 23:12:04 | 99.2 | 0 | 0.0 | 0 | 82 | 82 | 83 | 82 | |
| 09/03/2026 | 1:00:00 | 246 | 79 | 0:07:00 | 78 | 0:59:04 | 78 | 99 | 0:58:00 | 99 | 0:27:01 | 99.4 | 0 | 0.0 | 0 | 82 | 82 | 82 | 82 | |
| 09/03/2026 | 2:00:00 | 246 | 78 | 1:00:00 | 77 | 1:59:00 | 77 | 100 | 1:32:05 | 99 | 1:00:03 | 100 | 0 | 0.0 | 0 | 82 | 82 | 82 | 82 | |
| 09/03/2026 | 3:00:00 | 246 | 77 | 2:00:01 | 77 | 2:59:02 | 77 | 100 | 2:00:00 | 100 | 2:00:00 | 100 | 0 | 0.0 | 0 | 82 | 81 | 82 | 82 | |
| 09/03/2026 | 4:00:00 | 246 | 77 | 3:00:01 | 76 | 3:53:00 | 76 | 100 | 3:00:00 | 100 | 3:00:00 | 100 | 0 | 0.0 | 0 | 81 | 81 | 82 | 82 | |
| 09/03/2026 | 5:00:00 | 246 | 76 | 4:08:02 | 76 | 4:43:00 | 76 | 100 | 4:00:00 | 100 | 4:00:00 | 100 | 0 | 0.0 | 0 | 81 | 81 | 82 | 81 | |
| 09/03/2026 | 6:00:00 | 246 | 76 | 5:00:00 | 75 | 5:35:04 | 76 | 100 | 5:00:00 | 100 | 5:00:00 | 100 | 0 | 0.0 | 0 | 81 | 81 | 81 | 81 | |
| 09/03/2026 | 7:00:00 | 246 | 78 | 6:59:04 | 76 | 6:00:00 | 78 | 100 | 6:00:00 | 100 | 6:00:00 | 100 | 0 | 0.0 | 0 | 81 | 81 | 81 | 81 | |
| 09/03/2026 | 8:00:00 | 246 | 86 | 7:54:04 | 78 | 7:00:02 | 85 | 100 | 7:00:00 | 89 | 7:56:03 | 93 | 0 | 0.0 | 0 | 81 | 81 | 81 | 81 | |
| 09/03/2026 | 9:00:00 | 246 | 91 | 9:00:00 | 85 | 8:03:01 | 91 | 93 | 8:06:00 | 71 | 8:51:05 | 77.2 | 0 | 0.0 | 0 | 81 | 81 | 81 | 81 | |
| 09/03/2026 | 10:00:00 | 246 | 95 | 9:59:04 | 90 | 9:09:00 | 95 | 77 | 9:00:02 | 63 | 9:48:01 | 68.08 | 0 | 0.0 | 0 | 82 | 82 | 81 | 81 | |
| 09/03/2026 | 11:00:00 | 246 | 98 | 10:55:01 | 94 | 10:11:04 | 97 | 72 | 10:15:04 | 57 | 10:53:02 | 63.17 | 0 | 0.0 | 0 | 83 | 83 | 81 | 82 | |
| 09/03/2026 | 12:00:00 | 246 | 99 | 11:24:00 | 94 | 11:54:05 | 95 | 70 | 11:09:03 | 57 | 11:22:05 | 66.57 | 0 | 0.0 | 0 | 84 | 84 | 82 | 82 | |
| 09/03/2026 | 13:00:00 | 246 | 100 | 12:48:03 | 94 | 12:33:05 | 100 | 73 | 12:37:00 | 53 | 12:51:03 | 55.23 | 0 | 0.0 | 357 | 84 | 84 | 82 | 82 | |
| 09/03/2026 | 14:00:00 | 246 | 101 | 13:14:01 | 97 | 13:58:05 | 98 | 65 | 13:35:00 | 51 | 13:15:01 | 62.95 | 0 | 0.0 | 354 | 85 | 85 | 83 | 83 | |
| 09/03/2026 | 15:00:00 | 246 | 100 | 14:37:02 | 95 | 14:53:03 | 96 | 68 | 14:53:00 | 54 | 14:12:02 | 65.5 | 0 | 0.1 | 352 | 85 | 85 | 83 | 83 | |
| 09/03/2026 | 16:00:00 | 246 | 98 | 15:15:04 | 93 | 15:59:00 | 93 | 69 | 15:55:04 | 57 | 15:26:02 | 66.85 | 0 | 0.9 | 352 | 85 | 85 | 83 | 83 | |
| 09/03/2026 | 17:00:00 | 246 | 96 | 16:59:01 | 93 | 16:09:05 | 96 | 68 | 16:09:00 | 57 | 16:59:02 | 56.85 | 0 | 1.2 | 352 | 85 | 85 | 83 | 83 | |
| 09/03/2026 | 18:00:00 | 246 | 97 | 17:09:02 | 89 | 18:00:00 | 89 | 74 | 18:00:00 | 56 | 17:11:04 | 74.41 | 0 | 0.5 | 352 | 85 | 84 | 83 | 83 | |
| 09/03/2026 | 19:00:00 | 246 | 89 | 18:00:00 | 83 | 18:59:05 | 83 | 89 | 18:59:05 | 75 | 18:00:00 | 89.4 | 0 | 0.1 | 352 | 84 | 84 | 83 | 83 | |
| 09/03/2026 | 20:00:00 | 246 | 83 | 19:00:00 | 81 | 20:00:00 | 81 | 96 | 19:57:05 | 90 | 19:00:01 | 96.1 | 0 | 0.0 | 352 | 84 | 83 | 83 | 83 | |
| 09/03/2026 | 21:00:00 | 246 | 81 | 20:00:00 | 80 | 20:57:05 | 80 | 97 | 20:20:00 | 96 | 20:54:01 | 96 | 0 | 0.8 | 352 | 83 | 83 | 83 | 83 | |
| 09/03/2026 | 22:00:00 | 246 | 80 | 21:00:00 | 79 | 21:59:05 | 79 | 96 | 21:58:01 | 96 | 21:28:03 | 96.3 | 0 | 0.5 | 352 | 83 | 82 | 83 | 82 | |
| 09/03/2026 | 23:00:00 | 246 | 79 | 22:00:00 | 77 | 22:41:02 | 77 | 99 | 23:00:00 | 96 | 22:02:03 | 99.3 | 0 | 0.0 | 0 | 82 | 82 | 82 | 82 | |
| 09/04/2026 | 0:00:00 | 247 | 77 | 23:04:04 | 77 | 23:57:05 | 77 | 100 | 23:37:02 | 99 | 23:00:01 | 100 | 0 | 0.0 | 0 | 82 | 82 | 82 | 82 | |
| 09/04/2026 | 1:00:00 | 247 | 77 | 0:00:00 | 76 | 0:59:05 | 76 | 100 | 0:00:00 | 100 | 0:00:00 | 100 | 0 | 0.1 | 352 | 82 | 81 | 82 | 82 | |
| 09/04/2026 | 2:00:00 | 247 | 76 | 1:09:01 | 76 | 1:48:04 | 76 | 100 | 1:00:00 | 100 | 1:00:00 | 100 | 0 | 0.0 | 352 | 81 | 81 | 82 | 82 | |
| 09/04/2026 | 3:00:00 | 247 | 76 | 2:22:05 | 75 | 2:46:01 | 75 | 100 | 2:00:00 | 100 | 2:00:00 | 100 | 0 | 0.3 | 352 | 81 | 81 | 82 | 81 | |
| 09/04/2026 | 4:00:00 | 247 | 75 | 3:00:03 | 75 | 3:25:04 | 75 | 100 | 3:00:00 | 100 | 3:00:00 | 100 | 0 | 0.0 | 352 | 81 | 81 | 81 | 81 | |
| 09/04/2026 | 5:00:00 | 247 | 75 | 4:09:01 | 75 | 4:55:04 | 75 | 100 | 4:00:00 | 100 | 4:00:00 | 100 | 0 | 0.0 | 352 | 80 | 80 | 81 | 81 | |
| 09/04/2026 | 6:00:00 | 247 | 75 | 5:07:03 | 75 | 5:54:01 | 75 | 100 | 5:00:00 | 100 | 5:00:00 | 100 | 0 | 0.0 | 352 | 80 | 80 | 81 | 81 | |
| 09/04/2026 | 7:00:00 | 247 | 77 | 6:59:05 | 75 | 6:00:00 | 77 | 100 | 6:00:00 | 100 | 6:00:00 | 100 | 0 | 0.0 | 352 | 80 | 80 | 81 | 81 | |
| 09/04/2026 | 8:00:00 | 247 | 82 | 8:00:00 | 77 | 7:00:00 | 82 | 100 | 7:00:00 | 99 | 7:59:00 | 99 | 0 | 0.1 | 352 | 80 | 80 | 81 | 81 | |
| 09/04/2026 | 9:00:00 | 247 | 95 | 9:00:00 | 82 | 8:00:00 | 95 | 99 | 8:00:03 | 66 | 8:59:01 | 68.34 | 0 | 0.1 | 352 | 80 | 81 | 81 | 81 | |
| 09/04/2026 | 10:00:00 | 247 | 96 | 9:03:02 | 90 | 9:23:05 | 94 | 77 | 9:24:05 | 61 | 9:44:04 | 65.89 | 0 | 0.5 | 353 | 81 | 82 | 81 | 81 | |
| 09/04/2026 | 11:00:00 | 247 | 99 | 10:51:00 | 94 | 10:21:05 | 98 | 74 | 10:24:04 | 56 | 10:56:03 | 58.76 | 0 | 0.0 | 352 | 82 | 83 | 81 | 81 | |
| 09/04/2026 | 12:00:00 | 247 | 101 | 11:33:04 | 97 | 11:06:02 | 99 | 66 | 11:08:04 | 49 | 11:51:04 | 54.74 | 0 | 0.3 | 352 | 83 | 84 | 81 | 82 | |
| 09/04/2026 | 13:00:00 | 247 | 101 | 12:55:05 | 96 | 12:21:00 | 100 | 67 | 12:25:02 | 49 | 12:56:00 | 53.26 | 0 | 0.4 | 353 | 84 | 85 | 82 | 82 | |
| 09/04/2026 | 14:00:00 | 247 | 100 | 13:00:01 | 95 | 14:00:00 | 95 | 70 | 13:18:04 | 50 | 13:01:00 | 62.26 | 0 | 0.1 | 352 | 85 | 85 | 82 | 83 | |
| 09/04/2026 | 15:00:00 | 247 | 95 | 14:00:00 | 78 | 14:56:01 | 79 | 93 | 14:59:05 | 61 | 14:00:05 | 92.8 | 0 | 2.2 | 352 | 85 | 84 | 83 | 83 | |
| 09/04/2026 | 16:00:00 | 247 | 79 | 15:18:01 | 79 | 15:00:01 | 79 | 98 | 16:00:00 | 93 | 15:03:04 | 97.7 | 0 | 0.3 | 352 | 84 | 83 | 83 | 83 | |
| 09/04/2026 | 17:00:00 | 247 | 81 | 16:47:01 | 79 | 16:01:04 | 80 | 99 | 16:23:05 | 97 | 16:58:02 | 97.4 | 0 | 0.5 | 352 | 83 | 83 | 82 | 82 | |
| 09/04/2026 | 18:00:00 | 247 | 80 | 17:01:00 | 78 | 17:59:03 | 78 | 99 | 17:34:02 | 97 | 17:00:00 | 98.4 | 0 | 0.7 | 352 | 82 | 82 | 82 | 82 | |
| 09/04/2026 | 19:00:00 | 247 | 78 | 18:00:01 | 78 | 19:00:00 | 78 | 100 | 18:48:01 | 98 | 18:01:04 | 99.5 | 0 | 0.0 | 0 | 82 | 82 | 82 | 82 | |
| 09/04/2026 | 20:00:00 | 247 | 78 | 19:00:00 | 77 | 19:49:05 | 77 | 100 | 19:51:04 | 100 | 19:00:02 | 100 | 0 | 0.0 | 0 | 82 | 82 | 82 | 82 | |
| 09/04/2026 | 21:00:00 | 247 | 77 | 20:10:01 | 76 | 20:59:00 | 76 | 100 | 20:00:00 | 100 | 20:00:00 | 100 | 0 | 0.0 | 351 | 81 | 81 | 82 | 81 | |
| 09/04/2026 | 22:00:00 | 247 | 76 | 21:08:00 | 76 | 21:48:03 | 76 | 100 | 21:00:00 | 100 | 21:00:00 | 100 | 0 | 0.0 | 0 | 81 | 81 | 81 | 81 | |
| 09/04/2026 | 23:00:00 | 247 | 76 | 22:06:05 | 75 | 22:59:00 | 75 | 100 | 22:00:00 | 100 | 22:00:00 | 100 | 0 | 0.0 | 0 | 81 | 81 | 81 | 81 | |
| 09/05/2026 | 0:00:00 | 248 | 75 | 23:00:00 | 74 | 23:59:02 | 74 | 100 | 23:00:00 | 100 | 23:00:00 | 100 | 0 | 0.0 | 0 | 80 | 80 | 81 | 81 | |
| 09/05/2026 | 1:00:00 | 248 | 75 | 0:55:01 | 74 | 0:01:01 | 75 | 100 | 0:00:00 | 100 | 0:00:00 | 100 | 0 | 0.0 | 351 | 80 | 80 | 81 | 81 | |
| 09/05/2026 | 2:00:00 | 248 | 75 | 1:19:00 | 75 | 1:55:02 | 75 | 100 | 1:00:00 | 100 | 1:00:00 | 100 | 0 | 0.0 | 0 | 80 | 80 | 81 | 80 | |
| 09/05/2026 | 3:00:00 | 248 | 75 | 2:00:02 | 75 | 2:15:02 | 75 | 100 | 2:00:00 | 100 | 2:00:00 | 100 | 0 | 0.0 | 0 | 80 | 80 | 80 | 80 | |
| 09/05/2026 | 4:00:00 | 248 | 75 | 3:45:03 | 75 | 3:16:02 | 75 | 100 | 3:00:00 | 100 | 3:00:00 | 100 | 0 | 0.0 | 0 | 80 | 80 | 80 | 80 | |
| 09/05/2026 | 5:00:00 | 248 | 75 | 4:00:00 | 75 | 4:16:01 | 75 | 100 | 4:00:00 | 100 | 4:00:00 | 100 | 0 | 0.0 | 0 | 80 | 79 | 80 | 80 | |
| 09/05/2026 | 6:00:00 | 248 | 75 | 5:14:03 | 74 | 5:37:05 | 74 | 100 | 5:00:00 | 100 | 5:00:00 | 100 | 0 | 0.0 | 0 | 79 | 79 | 80 | 80 | |
| 09/05/2026 | 7:00:00 | 248 | 77 | 6:59:05 | 74 | 6:00:04 | 77 | 100 | 6:00:00 | 100 | 6:00:00 | 100 | 0 | 0.0 | 349 | 79 | 79 | 80 | 80 | |
| 09/05/2026 | 8:00:00 | 248 | 85 | 7:59:05 | 77 | 7:00:01 | 85 | 100 | 7:00:00 | 87 | 7:52:02 | 87.7 | 0 | 0.0 | 0 | 79 | 79 | 80 | 80 | |
| 09/05/2026 | 9:00:00 | 248 | 89 | 8:56:02 | 84 | 8:01:01 | 89 | 90 | 8:03:00 | 71 | 8:57:04 | 74.34 | 0 | 0.4 | 352 | 80 | 80 | 80 | 80 | |
| 09/05/2026 | 10:00:00 | 248 | 95 | 9:59:00 | 89 | 9:00:01 | 95 | 81 | 9:04:04 | 63 | 9:57:00 | 64.8 | 0 | 0.2 | 352 | 80 | 81 | 80 | 80 | |
| 09/05/2026 | 11:00:00 | 248 | 96 | 10:57:05 | 94 | 10:18:03 | 96 | 74 | 10:32:02 | 60 | 10:39:01 | 65.15 | 0 | 0.4 | 352 | 81 | 82 | 80 | 80 | |
| 09/05/2026 | 12:00:00 | 248 | 99 | 12:00:00 | 95 | 11:46:05 | 99 | 69 | 11:15:05 | 56 | 11:58:03 | 60.94 | 0 | 0.4 | 352 | 82 | 83 | 81 | 81 | |
| 09/05/2026 | 13:00:00 | 248 | 100 | 13:00:00 | 96 | 12:34:02 | 100 | 67 | 12:53:01 | 54 | 12:59:01 | 58.98 | 0 | 0.0 | 352 | 84 | 84 | 81 | 81 | |
| 09/05/2026 | 14:00:00 | 248 | 102 | 13:59:04 | 96 | 13:32:03 | 102 | 68 | 13:36:04 | 49 | 13:59:05 | 50.72 | 0 | 0.2 | 352 | 84 | 85 | 82 | 82 | |
| 09/05/2026 | 15:00:00 | 248 | 103 | 14:44:03 | 100 | 14:24:04 | 102 | 58 | 14:02:02 | 46 | 14:50:00 | 47.19 | 0 | 0.5 | 352 | 85 | 85 | 82 | 82 | |
| 09/05/2026 | 16:00:00 | 248 | 102 | 15:11:00 | 99 | 15:57:05 | 99 | 58 | 15:59:01 | 45 | 15:23:05 | 55.28 | 0 | 0.9 | 352 | 85 | 85 | 83 | 83 | |
| 09/05/2026 | 17:00:00 | 248 | 101 | 16:28:00 | 98 | 16:58:00 | 98 | 58 | 16:15:02 | 47 | 16:47:00 | 55.83 | 0 | 0.4 | 352 | 85 | 85 | 83 | 83 | |
| 09/05/2026 | 18:00:00 | 248 | 99 | 17:02:04 | 89 | 18:00:00 | 89 | 68 | 18:00:00 | 52 | 17:03:03 | 68.08 | 0 | 2.3 | 352 | 85 | 85 | 83 | 83 | |
| 09/05/2026 | 19:00:00 | 248 | 89 | 18:00:00 | 83 | 18:59:05 | 83 | 83 | 19:00:00 | 68 | 18:00:02 | 83.1 | 0 | 0.4 | 352 | 84 | 84 | 83 | 83 | |
| 09/05/2026 | 20:00:00 | 248 | 83 | 19:00:00 | 80 | 20:00:00 | 80 | 91 | 19:57:03 | 83 | 19:00:00 | 90.5 | 0 | 0.1 | 352 | 83 | 83 | 83 | 83 | |
| 09/05/2026 | 21:00:00 | 248 | 80 | 20:00:00 | 78 | 20:53:05 | 79 | 96 | 20:41:03 | 90 | 20:00:05 | 94 | 0 | 0.1 | 353 | 83 | 82 | 82 | 82 | |
| 09/05/2026 | 22:00:00 | 248 | 79 | 21:03:00 | 78 | 22:00:00 | 78 | 97 | 21:58:03 | 94 | 21:06:05 | 96.5 | 0 | 0.0 | 353 | 82 | 82 | 82 | 82 | |
| 09/05/2026 | 23:00:00 | 248 | 78 | 22:00:00 | 76 | 23:00:00 | 76 | 99 | 22:55:01 | 97 | 22:02:01 | 98.5 | 0 | 0.0 | 352 | 82 | 82 | 82 | 82 | |
| 09/06/2026 | 0:00:00 | 249 | 76 | 23:00:00 | 75 | 23:17:05 | 76 | 100 | 23:47:04 | 98 | 23:08:02 | 100 | 0 | 0.0 | 0 | 81 | 81 | 82 | 82 | |
| 09/06/2026 | 1:00:00 | 249 | 76 | 0:02:00 | 75 | 0:58:02 | 75 | 100 | 0:00:00 | 100 | 0:00:00 | 100 | 0 | 0.3 | 352 | 81 | 81 | 81 | 81 | |
| 09/06/2026 | 2:00:00 | 249 | 75 | 1:00:02 | 74 | 1:57:00 | 74 | 100 | 1:00:00 | 100 | 1:00:00 | 100 | 0 | 0.1 | 352 | 81 | 80 | 81 | 81 | |
| 09/06/2026 | 3:00:00 | 249 | 74 | 2:04:01 | 74 | 2:56:02 | 74 | 100 | 2:00:00 | 100 | 2:00:00 | 100 | 0 | 0.0 | 0 | 80 | 80 | 81 | 81 | |
| 09/06/2026 | 4:00:00 | 249 | 76 | 3:49:04 | 74 | 3:02:04 | 76 | 100 | 3:00:00 | 100 | 3:00:00 | 100 | 0 | 0.0 | 354 | 80 | 80 | 81 | 81 | |
| 09/06/2026 | 5:00:00 | 249 | 76 | 4:01:01 | 75 | 4:33:02 | 75 | 100 | 4:00:00 | 100 | 4:00:00 | 100 | 0 | 0.0 | 0 | 80 | 80 | 81 | 80 | |
| Average | 86.1 | 83.06 | 84.62 | 86.95 | 79.18 | 83.07 | 0 | 0.33 | 0 | 82.15 | 82.19 | 81.7 | 81.67 | |||||||
| Total | 0 |